• Join FlightAware (Why Join?)
  • Login
  • US Flag 
10:45PM EDT


 

Airport Tracker/Info


-or-


 

Live Flight TrackerFlight Track Log ✈ TAM8091 ✈ 13-Apr-2013 ✈ KMIA - SBGR / GRU

Flight Track Log - Related Links

Times and Time Zones

All times are in EDT time to prevent confusion due to time zone crossing. See the TAM8091 flight status page for this flight to view local times or setup timezone preferences in your user account.

Time Position Orientation Groundspeed Altitude Reporting Facility
EDT Latitude Longitude Course Direction KTS MPH feet Rate Location/Type
09:18PM 25.8020 -80.2660 90° East 196 226 300  Level FlightAware
09:18PM 25.8030 -80.2500 86° East 202 232 1,000 1,980 Climbing FlightAware
09:19PM 25.7950 -80.2210 107° East 219 252 1,800 1,620 Climbing FlightAware
09:19PM 25.7890 -80.2050 113° Southeast 238 274 2,100 1,320 Climbing FlightAware
09:19PM 25.7760 -80.1750 116° Southeast 259 298 2,700 1,620 Climbing FlightAware
09:19PM 25.7680 -80.1560 115° Southeast 268 308 3,200 1,800 Climbing FlightAware
09:20PM 25.7560 -80.1410 132° Southeast 275 316 3,600 1,980 Climbing FlightAware
09:20PM 25.7390 -80.1330 157° South 275 316 4,200 2,520 Climbing FlightAware
09:20PM 25.7080 -80.1230 164° South 279 321 5,300 2,520 Climbing FlightAware
09:21PM 25.6950 -80.1190 165° South 280 322 5,700 2,520 Climbing FlightAware
09:21PM 25.6490 -80.1040 164° South 285 328 7,200 2,400 Climbing FlightAware
09:22PM 25.6190 -80.0940 163° South 290 334 8,100 2,160 Climbing FlightAware
09:22PM 25.5790 -80.0810 164° South 297 342 9,200 1,920 Climbing FlightAware
09:23PM 25.5290 -80.0640 163° South 307 353 10,400 1,380 Climbing FlightAware
09:23PM 25.4580 -80.0400 163° South 359 413 11,200 1,020 Climbing FlightAware
09:24PM 25.3920 -80.0180 163° South 387 445 11,900 1,860 Climbing FlightAware
09:25PM 25.3100 -79.9900 163° South 397 457 14,000 2,400 Climbing FlightAware
09:26PM 25.2040 -79.9210 149° Southeast 412 474 16,400 2,100 Climbing FlightAware
09:27PM 25.1330 -79.8690 146° Southeast 421 484 17,700 1,320 Climbing FlightAware
09:28PM 25.0530 -79.8120 147° Southeast 441 507 18,500 480 Climbing FlightAware
09:28PM 24.9950 -79.7710 147° Southeast 441 507 18,500  Level FlightAware
09:29PM 24.9220 -79.7190 147° Southeast 441 507 18,500  Level FlightAware
09:30PM 24.8640 -79.6770 147° Southeast 441 507 18,500  Level FlightAware
09:30PM 24.8060 -79.6350 147° Southeast 441 507 18,500  Level FlightAware
09:31PM 24.7480 -79.5940 147° Southeast 441 507 18,500 6,360 Level FlightAware
09:31PM 24.6292 -79.5128 147° Southeast 474 545 25,200 5,760 Climbing Miami Center
09:32PM 24.5136 -79.4283 146° Southeast 494 568 26,500 1,260 Climbing Miami Center
09:33PM 24.3897 -79.3414 147° Southeast 506 582 27,800 1,320 Climbing Miami Center
09:34PM 24.2636 -79.2589 149° Southeast 518 596 29,200 1,200 Climbing Miami Center
09:35PM 24.1272 -79.1608 147° Southeast 524 603 30,200 720 Climbing Miami Center
09:36PM 24.0094 -79.0789 148° Southeast 526 605 30,700  Climbing Miami Center
09:38PM 24.1276 -79.1194 341° North  Level FlightAware Approximate
09:45PM 25.0773 -79.4856 341° North  Level FlightAware Approximate
09:46PM 25.2130 -79.5382 341° North  Level FlightAware Approximate
09:47PM 25.3491 -79.5892 341° North  Level FlightAware Approximate
09:48PM 25.4853 -79.6405 341° North  Level FlightAware Approximate
09:49PM 25.6209 -79.6933 341° North  Level FlightAware Approximate
09:50PM 25.7566 -79.7461 341° North  Level FlightAware Approximate
09:51PM 25.8922 -79.7990 341° North  Level FlightAware Approximate
09:52PM 26.0279 -79.8521 341° North  Level FlightAware Approximate
09:53PM 26.1634 -79.9054 340° North  Level FlightAware Approximate
09:54PM 26.2986 -79.9601 340° North  Level FlightAware Approximate
09:55PM 26.4337 -80.0150 340° North  Level FlightAware Approximate
09:56PM 26.5688 -80.0699 340° North  Level FlightAware Approximate
09:57PM 26.6655 -80.1026 145° Southeast  Level FlightAware Approximate
09:58PM 26.5481 -80.0098 145° Southeast  Level FlightAware Approximate
09:59PM 26.4306 -79.9172 145° Southeast  Level FlightAware Approximate
10:00PM 26.3131 -79.8247 145° Southeast  Level FlightAware Approximate
10:01PM 26.1955 -79.7325 145° Southeast  Level FlightAware Approximate
10:02PM 26.0779 -79.6404 145° Southeast  Level FlightAware Approximate
10:03PM 25.9607 -79.5477 143° Southeast  Level FlightAware Approximate
10:04PM 25.8457 -79.4518 143° Southeast  Level FlightAware Approximate
10:05PM 25.7307 -79.3560 143° Southeast  Level FlightAware Approximate
10:06PM 25.6144 -79.2621 144° Southeast  Level FlightAware Approximate
10:07PM 25.4973 -79.1696 145° Southeast  Level FlightAware Approximate
10:08PM 25.3802 -79.0773 145° Southeast  Level FlightAware Approximate
10:09PM 25.2631 -78.9850 144° Southeast  Level FlightAware Approximate
10:10PM 25.1460 -78.8929 145° Southeast  Level FlightAware Approximate
10:11PM 25.0288 -78.8009 145° Southeast  Level FlightAware Approximate
10:12PM 24.9116 -78.7091 145° Southeast  Level FlightAware Approximate
10:13PM 24.7938 -78.6181 145° Southeast  Level FlightAware Approximate
10:14PM 24.6760 -78.5275 145° Southeast  Level FlightAware Approximate
10:15PM 24.5581 -78.4370 145° Southeast  Level FlightAware Approximate
10:16PM 24.4401 -78.3466 145° Southeast  Level FlightAware Approximate
10:17PM 24.3221 -78.2565 145° Southeast  Level FlightAware Approximate
10:18PM 24.2041 -78.1665 145° Southeast  Level FlightAware Approximate
10:19PM 24.0872 -78.0747 142° Southeast  Level FlightAware Approximate
10:20PM 23.9728 -77.9795 146° Southeast  Level FlightAware Approximate
10:21PM 23.8542 -77.8906 146° Southeast  Level FlightAware Approximate
10:22PM 23.7361 -77.8010 145° Southeast  Level FlightAware Approximate
10:23PM 23.6184 -77.7109 145° Southeast  Level FlightAware Approximate
10:24PM 23.5006 -77.6209 145° Southeast  Level FlightAware Approximate
10:25PM 23.3827 -77.5312 145° Southeast  Level FlightAware Approximate
10:26PM 23.2648 -77.4416 145° Southeast  Level FlightAware Approximate
10:27PM 23.1469 -77.3521 145° Southeast  Level FlightAware Approximate
10:28PM 23.0289 -77.2628 145° Southeast  Level FlightAware Approximate
10:29PM 22.9109 -77.1736 145° Southeast  Level FlightAware Approximate
10:30PM 22.7928 -77.0846 145° Southeast  Level FlightAware Approximate
10:31PM 22.6746 -76.9958 145° Southeast  Level FlightAware Approximate
10:32PM 22.5564 -76.9071 145° Southeast  Level FlightAware Approximate
10:33PM 22.4382 -76.8186 145° Southeast  Level FlightAware Approximate
10:34PM 22.3199 -76.7302 145° Southeast  Level FlightAware Approximate
10:35PM 22.2016 -76.6419 145° Southeast  Level FlightAware Approximate
10:36PM 22.0832 -76.5538 145° Southeast  Level FlightAware Approximate
10:37PM 21.9648 -76.4659 145° Southeast  Level FlightAware Approximate
10:38PM 21.8463 -76.3781 145° Southeast  Level FlightAware Approximate
10:39PM 21.7278 -76.2905 146° Southeast  Level FlightAware Approximate
10:40PM 21.6092 -76.2029 146° Southeast  Level FlightAware Approximate
10:41PM 21.4906 -76.1156 146° Southeast  Level FlightAware Approximate
10:42PM 21.3720 -76.0284 146° Southeast  Level FlightAware Approximate
10:43PM 21.2533 -75.9413 146° Southeast  Level FlightAware Approximate
10:44PM 21.1345 -75.8543 146° Southeast  Level FlightAware Approximate
10:45PM 21.0157 -75.7675 146° Southeast  Level FlightAware Approximate
10:46PM 20.8969 -75.6809 146° Southeast  Level FlightAware Approximate
10:47PM 20.7780 -75.5944 146° Southeast  Level FlightAware Approximate
10:48PM 20.6591 -75.5080 146° Southeast  Level FlightAware Approximate
10:49PM 20.5401 -75.4217 146° Southeast  Level FlightAware Approximate
10:50PM 20.4211 -75.3356 146° Southeast  Level FlightAware Approximate
10:51PM 20.3021 -75.2496 146° Southeast  Level FlightAware Approximate
10:52PM 20.1830 -75.1638 146° Southeast  Level FlightAware Approximate
10:53PM 20.0639 -75.0781 146° Southeast  Level FlightAware Approximate
10:54PM 19.9447 -74.9925 146° Southeast  Level FlightAware Approximate
10:55PM 19.8255 -74.9070 146° Southeast  Level FlightAware Approximate
10:56PM 19.7062 -74.8217 146° Southeast  Level FlightAware Approximate
10:57PM 19.5869 -74.7365 146° Southeast  Level FlightAware Approximate
10:58PM 19.4676 -74.6514 146° Southeast  Level FlightAware Approximate
10:59PM 19.3482 -74.5664 146° Southeast  Level FlightAware Approximate
11:00PM 19.2288 -74.4816 146° Southeast  Level FlightAware Approximate
11:01PM 19.1094 -74.3969 146° Southeast  Level FlightAware Approximate
11:02PM 18.9900 -74.3121 146° Southeast  Level FlightAware Approximate
11:03PM 18.8707 -74.2273 146° Southeast  Level FlightAware Approximate
11:04PM 18.7513 -74.1427 146° Southeast  Level FlightAware Approximate
11:05PM 18.6319 -74.0581 146° Southeast  Level FlightAware Approximate
11:06PM 18.5124 -73.9737 146° Southeast  Level FlightAware Approximate
11:07PM 18.3930 -73.8894 146° Southeast  Level FlightAware Approximate
11:08PM 18.2735 -73.8052 146° Southeast  Level FlightAware Approximate
11:09PM 18.1539 -73.7211 146° Southeast  Level FlightAware Approximate
11:10PM 18.0343 -73.6372 146° Southeast  Level FlightAware Approximate
11:11PM 17.9147 -73.5533 146° Southeast  Level FlightAware Approximate
11:12PM 17.7950 -73.4696 146° Southeast  Level FlightAware Approximate
11:13PM 17.6753 -73.3859 146° Southeast  Level FlightAware Approximate
11:14PM 17.5556 -73.3024 146° Southeast  Level FlightAware Approximate
11:15PM 17.4358 -73.2190 146° Southeast  Level FlightAware Approximate
11:16PM 17.3160 -73.1357 146° Southeast  Level FlightAware Approximate
11:17PM 17.1962 -73.0526 146° Southeast  Level FlightAware Approximate
11:18PM 17.0763 -72.9695 146° Southeast  Level FlightAware Approximate
11:19PM 16.9564 -72.8866 147° Southeast  Level FlightAware Approximate
11:20PM 16.8364 -72.8038 147° Southeast  Level FlightAware Approximate
11:21PM 16.7164 -72.7212 147° Southeast  Level FlightAware Approximate
11:22PM 16.5963 -72.6386 147° Southeast  Level FlightAware Approximate
11:23PM 16.4762 -72.5562 147° Southeast  Level FlightAware Approximate
11:24PM 16.3560 -72.4739 147° Southeast  Level FlightAware Approximate
11:25PM 16.2359 -72.3916 147° Southeast  Level FlightAware Approximate
11:26PM 16.1157 -72.3095 147° Southeast  Level FlightAware Approximate
11:27PM 15.9954 -72.2275 147° Southeast  Level FlightAware Approximate
11:28PM 15.8752 -72.1455 147° Southeast  Level FlightAware Approximate
11:29PM 15.7549 -72.0637 147° Southeast  Level FlightAware Approximate
11:30PM 15.6345 -71.9819 147° Southeast  Level FlightAware Approximate
11:31PM 15.5142 -71.9003 147° Southeast  Level FlightAware Approximate
11:32PM 15.3938 -71.8188 147° Southeast  Level FlightAware Approximate
11:33PM 15.2734 -71.7373 147° Southeast  Level FlightAware Approximate
11:34PM 15.1529 -71.6559 147° Southeast  Level FlightAware Approximate
11:35PM 15.0325 -71.5747 147° Southeast  Level FlightAware Approximate
11:36PM 14.9120 -71.4935 147° Southeast  Level FlightAware Approximate
11:37PM 14.7914 -71.4124 147° Southeast  Level FlightAware Approximate
11:38PM 14.6709 -71.3314 147° Southeast  Level FlightAware Approximate
11:39PM 14.5503 -71.2505 147° Southeast  Level FlightAware Approximate
11:40PM 14.4297 -71.1697 147° Southeast  Level FlightAware Approximate
11:41PM 14.3090 -71.0889 147° Southeast  Level FlightAware Approximate
11:42PM 14.1883 -71.0083 147° Southeast  Level FlightAware Approximate
11:43PM 14.0676 -70.9277 147° Southeast  Level FlightAware Approximate
11:44PM 13.9469 -70.8473 147° Southeast  Level FlightAware Approximate
11:45PM 13.8262 -70.7669 147° Southeast  Level FlightAware Approximate
11:46PM 13.7054 -70.6866 147° Southeast  Level FlightAware Approximate
11:47PM 13.5846 -70.6064 147° Southeast  Level FlightAware Approximate
11:48PM 13.4638 -70.5262 147° Southeast  Level FlightAware Approximate
11:49PM 13.3429 -70.4462 147° Southeast  Level FlightAware Approximate
11:50PM 13.2220 -70.3662 147° Southeast  Level FlightAware Approximate
11:51PM 13.1011 -70.2863 147° Southeast  Level FlightAware Approximate
11:52PM 12.9802 -70.2065 147° Southeast  Level FlightAware Approximate
11:53PM 12.8593 -70.1267 147° Southeast  Level FlightAware Approximate
11:54PM 12.7383 -70.0470 147° Southeast  Level FlightAware Approximate
11:55PM 12.6173 -69.9674 147° Southeast  Level FlightAware Approximate
11:56PM 12.4963 -69.8879 147° Southeast  Level FlightAware Approximate
11:57PM 12.3752 -69.8085 147° Southeast  Level FlightAware Approximate
11:58PM 12.2541 -69.7291 147° Southeast  Level FlightAware Approximate
11:59PM 12.1330 -69.6498 148° Southeast  Level FlightAware Approximate
12:00AM 12.0113 -69.5716 148° Southeast  Level FlightAware Approximate
12:01AM 11.8895 -69.4935 148° Southeast  Level FlightAware Approximate
12:02AM 11.7677 -69.4155 148° Southeast  Level FlightAware Approximate
12:03AM 11.6459 -69.3375 148° Southeast  Level FlightAware Approximate
12:04AM 11.5240 -69.2596 148° Southeast  Level FlightAware Approximate
12:05AM 11.4021 -69.1818 148° Southeast  Level FlightAware Approximate
12:06AM 11.2802 -69.1040 148° Southeast  Level FlightAware Approximate
12:07AM 11.1583 -69.0263 148° Southeast  Level FlightAware Approximate
12:08AM 11.0364 -68.9487 148° Southeast  Level FlightAware Approximate
12:09AM 10.9145 -68.8711 148° Southeast  Level FlightAware Approximate
12:10AM 10.7925 -68.7936 148° Southeast  Level FlightAware Approximate
12:11AM 10.6709 -68.7156 148° Southeast  Level FlightAware Approximate
12:12AM 10.5495 -68.6372 148° Southeast  Level FlightAware Approximate
12:13AM 10.4281 -68.5589 148° Southeast  Level FlightAware Approximate
12:14AM 10.3066 -68.4807 148° Southeast  Level FlightAware Approximate
12:15AM 10.1851 -68.4025 148° Southeast  Level FlightAware Approximate
12:16AM 10.0636 -68.3244 148° Southeast  Level FlightAware Approximate
12:17AM 9.9421 -68.2464 148° Southeast  Level FlightAware Approximate
12:18AM 9.8206 -68.1684 148° Southeast  Level FlightAware Approximate
12:19AM 9.6991 -68.0905 148° Southeast  Level FlightAware Approximate
12:20AM 9.5775 -68.0126 148° Southeast  Level FlightAware Approximate
12:21AM 9.4559 -67.9348 148° Southeast  Level FlightAware Approximate
12:22AM 9.3343 -67.8570 148° Southeast  Level FlightAware Approximate
12:23AM 9.2127 -67.7793 148° Southeast  Level FlightAware Approximate
12:24AM 9.0911 -67.7016 148° Southeast  Level FlightAware Approximate
12:25AM 8.9695 -67.6240 148° Southeast  Level FlightAware Approximate
12:26AM 8.8478 -67.5465 148° Southeast  Level FlightAware Approximate
12:27AM 8.7261 -67.4690 148° Southeast  Level FlightAware Approximate
12:28AM 8.6045 -67.3915 148° Southeast  Level FlightAware Approximate
12:29AM 8.4827 -67.3141 148° Southeast  Level FlightAware Approximate
12:30AM 8.3610 -67.2368 148° Southeast  Level FlightAware Approximate
12:31AM 8.2393 -67.1595 148° Southeast  Level FlightAware Approximate
12:32AM 8.1175 -67.0822 148° Southeast  Level FlightAware Approximate
12:33AM 7.9958 -67.0050 148° Southeast  Level FlightAware Approximate
12:34AM 7.8740 -66.9279 148° Southeast  Level FlightAware Approximate
12:35AM 7.7522 -66.8507 148° Southeast  Level FlightAware Approximate
12:36AM 7.6304 -66.7737 148° Southeast  Level FlightAware Approximate
12:37AM 7.5086 -66.6966 148° Southeast  Level FlightAware Approximate
12:38AM 7.3867 -66.6197 148° Southeast  Level FlightAware Approximate
12:39AM 7.2649 -66.5427 148° Southeast  Level FlightAware Approximate
12:40AM 7.1430 -66.4658 148° Southeast  Level FlightAware Approximate
12:41AM 7.0212 -66.3889 148° Southeast  Level FlightAware Approximate
12:42AM 6.8993 -66.3121 148° Southeast  Level FlightAware Approximate
12:43AM 6.7774 -66.2354 148° Southeast  Level FlightAware Approximate
12:44AM 6.6554 -66.1586 148° Southeast  Level FlightAware Approximate
12:45AM 6.5335 -66.0819 148° Southeast  Level FlightAware Approximate
12:46AM 6.4116 -66.0052 148° Southeast  Level FlightAware Approximate
12:47AM 6.2896 -65.9286 148° Southeast  Level FlightAware Approximate
12:48AM 6.1677 -65.8520 148° Southeast  Level FlightAware Approximate
12:49AM 6.0457 -65.7755 148° Southeast  Level FlightAware Approximate
12:50AM 5.9237 -65.6989 148° Southeast  Level FlightAware Approximate
12:51AM 5.8018 -65.6225 148° Southeast  Level FlightAware Approximate
12:52AM 5.6797 -65.5460 148° Southeast  Level FlightAware Approximate
12:53AM 5.5577 -65.4696 148° Southeast  Level FlightAware Approximate
12:54AM 5.4357 -65.3932 148° Southeast  Level FlightAware Approximate
12:55AM 5.3137 -65.3168 148° Southeast  Level FlightAware Approximate
12:56AM 5.1916 -65.2405 148° Southeast  Level FlightAware Approximate
12:57AM 5.0696 -65.1642 148° Southeast  Level FlightAware Approximate
12:58AM 4.9475 -65.0879 148° Southeast  Level FlightAware Approximate
12:59AM 4.8255 -65.0117 148° Southeast  Level FlightAware Approximate
01:00AM 4.7034 -64.9354 148° Southeast  Level FlightAware Approximate
01:01AM 4.5813 -64.8593 148° Southeast  Level FlightAware Approximate
01:02AM 4.4592 -64.7831 148° Southeast  Level FlightAware Approximate
01:03AM 4.3371 -64.7070 148° Southeast  Level FlightAware Approximate
01:04AM 4.2150 -64.6309 148° Southeast  Level FlightAware Approximate
01:05AM 4.0929 -64.5548 148° Southeast  Level FlightAware Approximate
01:06AM 3.9708 -64.4787 148° Southeast  Level FlightAware Approximate
01:07AM 3.8487 -64.4026 148° Southeast  Level FlightAware Approximate
01:08AM 3.7266 -64.3266 148° Southeast  Level FlightAware Approximate
01:09AM 3.6044 -64.2506 148° Southeast  Level FlightAware Approximate
01:10AM 3.4823 -64.1746 148° Southeast  Level FlightAware Approximate
01:11AM 3.3601 -64.0987 148° Southeast  Level FlightAware Approximate
01:12AM 3.2380 -64.0227 148° Southeast  Level FlightAware Approximate
01:13AM 3.1158 -63.9468 148° Southeast  Level FlightAware Approximate
01:14AM 2.9936 -63.8709 148° Southeast  Level FlightAware Approximate
01:15AM 2.8714 -63.7950 148° Southeast  Level FlightAware Approximate
01:16AM 2.7493 -63.7192 148° Southeast  Level FlightAware Approximate
01:17AM 2.6271 -63.6433 148° Southeast  Level FlightAware Approximate
01:18AM 2.5049 -63.5675 148° Southeast  Level FlightAware Approximate
01:19AM 2.3827 -63.4916 148° Southeast  Level FlightAware Approximate
01:20AM 2.2605 -63.4158 148° Southeast  Level FlightAware Approximate
01:21AM 2.1383 -63.3400 148° Southeast  Level FlightAware Approximate
01:22AM 2.0161 -63.2642 148° Southeast  Level FlightAware Approximate
01:23AM 1.8939 -63.1884 148° Southeast  Level FlightAware Approximate
01:24AM 1.7717 -63.1127 148° Southeast  Level FlightAware Approximate
01:25AM 1.6495 -63.0369 148° Southeast  Level FlightAware Approximate
01:26AM 1.5273 -62.9612 148° Southeast  Level FlightAware Approximate
01:27AM 1.4050 -62.8854 148° Southeast  Level FlightAware Approximate
01:28AM 1.2828 -62.8097 148° Southeast  Level FlightAware Approximate
01:29AM 1.1606 -62.7340 148° Southeast  Level FlightAware Approximate
01:30AM 1.0384 -62.6582 148° Southeast  Level FlightAware Approximate
01:31AM 0.9161 -62.5825 148° Southeast  Level FlightAware Approximate
01:32AM 0.7939 -62.5068 148° Southeast  Level FlightAware Approximate
01:33AM 0.6717 -62.4311 148° Southeast  Level FlightAware Approximate
01:34AM 0.5494 -62.3554 148° Southeast  Level FlightAware Approximate
01:35AM 0.4272 -62.2797 148° Southeast  Level FlightAware Approximate
01:36AM 0.3050 -62.2040 148° Southeast  Level FlightAware Approximate
01:37AM 0.1827 -62.1283 148° Southeast  Level FlightAware Approximate
01:38AM 0.0605 -62.0526 148° Southeast  Level FlightAware Approximate
01:39AM -0.0617 -61.9770 148° Southeast  Level FlightAware Approximate
01:40AM -0.1840 -61.9013 148° Southeast  Level FlightAware Approximate
01:41AM -0.3062 -61.8256 148° Southeast  Level FlightAware Approximate
01:42AM -0.4284 -61.7499 148° Southeast  Level FlightAware Approximate
01:43AM -0.5507 -61.6742 148° Southeast  Level FlightAware Approximate
01:44AM -0.6729 -61.5985 148° Southeast  Level FlightAware Approximate
01:45AM -0.7951 -61.5228 148° Southeast  Level FlightAware Approximate
01:46AM -0.9174 -61.4471 148° Southeast  Level FlightAware Approximate
01:47AM -1.0396 -61.3713 148° Southeast  Level FlightAware Approximate
01:48AM -1.1618 -61.2956 148° Southeast  Level FlightAware Approximate
01:49AM -1.2841 -61.2199 148° Southeast  Level FlightAware Approximate
01:50AM -1.4063 -61.1442 148° Southeast  Level FlightAware Approximate
01:51AM -1.5285 -61.0684 148° Southeast  Level FlightAware Approximate
01:52AM -1.6507 -60.9927 148° Southeast  Level FlightAware Approximate
01:53AM -1.7729 -60.9169 148° Southeast  Level FlightAware Approximate
01:54AM -1.8951 -60.8411 148° Southeast  Level FlightAware Approximate
01:55AM -2.0173 -60.7654 148° Southeast  Level FlightAware Approximate
01:56AM -2.1395 -60.6896 148° Southeast  Level FlightAware Approximate
01:57AM -2.2617 -60.6138 148° Southeast  Level FlightAware Approximate
01:58AM -2.3839 -60.5380 148° Southeast  Level FlightAware Approximate
01:59AM -2.5061 -60.4621 148° Southeast  Level FlightAware Approximate
02:00AM -2.6283 -60.3863 148° Southeast  Level FlightAware Approximate
02:01AM -2.7505 -60.3104 148° Southeast  Level FlightAware Approximate
02:02AM -2.8727 -60.2346 148° Southeast  Level FlightAware Approximate
02:03AM -2.9949 -60.1587 148° Southeast  Level FlightAware Approximate
02:04AM -3.1170 -60.0828 148° Southeast  Level FlightAware Approximate
02:05AM -3.2392 -60.0068 148° Southeast  Level FlightAware Approximate
02:06AM -3.3614 -59.9309 148° Southeast  Level FlightAware Approximate
02:07AM -3.4835 -59.8549 148° Southeast  Level FlightAware Approximate
02:08AM -3.6056 -59.7789 148° Southeast  Level FlightAware Approximate
02:09AM -3.7278 -59.7029 148° Southeast  Level FlightAware Approximate
02:10AM -3.8499 -59.6269 148° Southeast  Level FlightAware Approximate
02:11AM -3.9720 -59.5509 148° Southeast  Level FlightAware Approximate
02:12AM -4.0942 -59.4748 148° Southeast  Level FlightAware Approximate
02:13AM -4.2163 -59.3987 148° Southeast  Level FlightAware Approximate
02:14AM -4.3384 -59.3226 148° Southeast  Level FlightAware Approximate
02:15AM -4.4605 -59.2465 148° Southeast  Level FlightAware Approximate
02:16AM -4.5826 -59.1703 148° Southeast  Level FlightAware Approximate
02:17AM -4.7046 -59.0941 148° Southeast  Level FlightAware Approximate
02:18AM -4.8267 -59.0179 148° Southeast  Level FlightAware Approximate
02:19AM -4.9488 -58.9416 148° Southeast  Level FlightAware Approximate
02:20AM -5.0708 -58.8654 148° Southeast  Level FlightAware Approximate
02:21AM -5.1929 -58.7891 148° Southeast  Level FlightAware Approximate
02:22AM -5.3149 -58.7127 148° Southeast  Level FlightAware Approximate
02:23AM -5.4370 -58.6364 148° Southeast  Level FlightAware Approximate
02:24AM -5.5590 -58.5600 148° Southeast  Level FlightAware Approximate
02:25AM -5.6810 -58.4836 148° Southeast  Level FlightAware Approximate
02:26AM -5.8030 -58.4071 148° Southeast  Level FlightAware Approximate
02:27AM -5.9250 -58.3306 148° Southeast  Level FlightAware Approximate
02:28AM -6.0470 -58.2541 148° Southeast  Level FlightAware Approximate
02:29AM -6.1689 -58.1775 148° Southeast  Level FlightAware Approximate
02:30AM -6.2909 -58.1009 148° Southeast  Level FlightAware Approximate
02:31AM -6.4128 -58.0243 148° Southeast  Level FlightAware Approximate
02:32AM -6.5348 -57.9476 148° Southeast  Level FlightAware Approximate
02:33AM -6.6567 -57.8709 148° Southeast  Level FlightAware Approximate
02:34AM -6.7786 -57.7942 148° Southeast  Level FlightAware Approximate
02:35AM -6.9005 -57.7174 148° Southeast  Level FlightAware Approximate
02:36AM -7.0224 -57.6406 148° Southeast  Level FlightAware Approximate
02:37AM -7.1442 -57.5637 148° Southeast  Level FlightAware Approximate
02:38AM -7.2661 -57.4868 148° Southeast  Level FlightAware Approximate
02:39AM -7.3880 -57.4099 148° Southeast  Level FlightAware Approximate
02:40AM -7.5098 -57.3329 148° Southeast  Level FlightAware Approximate
02:41AM -7.6316 -57.2559 148° Southeast  Level FlightAware Approximate
02:42AM -7.7534 -57.1788 148° Southeast  Level FlightAware Approximate
02:43AM -7.8752 -57.1017 148° Southeast  Level FlightAware Approximate
02:44AM -7.9970 -57.0245 148° Southeast  Level FlightAware Approximate
02:45AM -8.1188 -56.9473 148° Southeast  Level FlightAware Approximate
02:46AM -8.2405 -56.8701 148° Southeast  Level FlightAware Approximate
02:47AM -8.3623 -56.7928 148° Southeast  Level FlightAware Approximate
02:48AM -8.4840 -56.7154 148° Southeast  Level FlightAware Approximate
02:49AM -8.6057 -56.6380 148° Southeast  Level FlightAware Approximate
02:50AM -8.7274 -56.5606 148° Southeast  Level FlightAware Approximate
02:51AM -8.8490 -56.4831 148° Southeast  Level FlightAware Approximate
02:52AM -8.9707 -56.4055 148° Southeast  Level FlightAware Approximate
02:53AM -9.0923 -56.3279 148° Southeast  Level FlightAware Approximate
02:54AM -9.2140 -56.2503 148° Southeast  Level FlightAware Approximate
02:55AM -9.3356 -56.1725 148° Southeast  Level FlightAware Approximate
02:56AM -9.4572 -56.0948 148° Southeast  Level FlightAware Approximate
02:57AM -9.5787 -56.0170 148° Southeast  Level FlightAware Approximate
02:58AM -9.7003 -55.9391 148° Southeast  Level FlightAware Approximate
02:59AM -9.8218 -55.8611 148° Southeast  Level FlightAware Approximate
03:00AM -9.9434 -55.7832 148° Southeast  Level FlightAware Approximate
03:01AM -10.0649 -55.7051 148° Southeast  Level FlightAware Approximate
03:02AM -10.1864 -55.6270 148° Southeast  Level FlightAware Approximate
03:03AM -10.3078 -55.5488 148° Southeast  Level FlightAware Approximate
03:04AM -10.4293 -55.4706 148° Southeast  Level FlightAware Approximate
03:05AM -10.5507 -55.3923 148° Southeast  Level FlightAware Approximate
03:06AM -10.6721 -55.3140 148° Southeast  Level FlightAware Approximate
03:07AM -10.7935 -55.2355 148° Southeast  Level FlightAware Approximate
03:08AM -10.9149 -55.1571 148° Southeast  Level FlightAware Approximate
03:09AM -11.0362 -55.0785 148° Southeast  Level FlightAware Approximate
03:10AM -11.1576 -54.9999 148° Southeast  Level FlightAware Approximate
03:11AM -11.2789 -54.9213 148° Southeast  Level FlightAware Approximate
03:12AM -11.4002 -54.8425 148° Southeast  Level FlightAware Approximate
03:13AM -11.5214 -54.7637 148° Southeast  Level FlightAware Approximate
03:14AM -11.6427 -54.6849 148° Southeast  Level FlightAware Approximate
03:15AM -11.7639 -54.6059 147° Southeast  Level FlightAware Approximate
03:16AM -11.8851 -54.5269 147° Southeast  Level FlightAware Approximate
03:17AM -12.0063 -54.4478 147° Southeast  Level FlightAware Approximate
03:18AM -12.1274 -54.3687 147° Southeast  Level FlightAware Approximate
03:19AM -12.2486 -54.2895 147° Southeast  Level FlightAware Approximate
03:20AM -12.3697 -54.2102 147° Southeast  Level FlightAware Approximate
03:21AM -12.4908 -54.1308 147° Southeast  Level FlightAware Approximate
03:22AM -12.6119 -54.0513 147° Southeast  Level FlightAware Approximate
03:23AM -12.7329 -53.9718 147° Southeast  Level FlightAware Approximate
03:24AM -12.8539 -53.8922 147° Southeast  Level FlightAware Approximate
03:25AM -12.9749 -53.8126 147° Southeast  Level FlightAware Approximate
03:26AM -13.0959 -53.7328 147° Southeast  Level FlightAware Approximate
03:27AM -13.2168 -53.6530 147° Southeast  Level FlightAware Approximate
03:28AM -13.3378 -53.5731 147° Southeast  Level FlightAware Approximate
03:29AM -13.4587 -53.4931 147° Southeast  Level FlightAware Approximate
03:30AM -13.5795 -53.4130 147° Southeast  Level FlightAware Approximate
03:31AM -13.7004 -53.3329 147° Southeast  Level FlightAware Approximate
03:32AM -13.8212 -53.2526 147° Southeast  Level FlightAware Approximate
03:33AM -13.9420 -53.1723 147° Southeast  Level FlightAware Approximate
03:34AM -14.0628 -53.0919 147° Southeast  Level FlightAware Approximate
03:35AM -14.1835 -53.0115 147° Southeast  Level FlightAware Approximate
03:36AM -14.3042 -52.9309 147° Southeast  Level FlightAware Approximate
03:37AM -14.4249 -52.8502 147° Southeast  Level FlightAware Approximate
03:38AM -14.5456 -52.7695 147° Southeast  Level FlightAware Approximate
03:39AM -14.6662 -52.6886 147° Southeast  Level FlightAware Approximate
03:40AM -14.7868 -52.6077 147° Southeast  Level FlightAware Approximate
03:40AM -18.5950 -50.2050 147° Southeast 523 602 35,000  Level FlightAware
03:41AM -14.9074 -52.5267 147° Southeast  Level FlightAware Approximate
03:41AM -18.6540 -50.1580 143° Southeast 523 602 35,000  Level FlightAware
03:41AM -18.7330 -50.0920 142° Southeast 523 602 35,000  Level FlightAware
03:42AM -18.8140 -50.0250 142° Southeast 523 602 35,000  Level FlightAware
03:43AM -18.6990 -50.1200 322° Northwest 523 602 35,000  Level FlightAware
03:43AM -19.0020 -49.8760 143° Southeast 528 608 35,000  Level FlightAware
03:44AM -19.0650 -49.8240 142° Southeast 528 608 35,000  Level FlightAware
03:45AM -19.1880 -49.7240 142° Southeast 529 609 35,000  Level FlightAware
03:46AM -19.2460 -49.6740 141° Southeast 529 609 35,000  Level FlightAware
03:46AM -19.3250 -49.6070 141° Southeast 529 609 35,000  Level FlightAware
03:47AM -19.4060 -49.5370 141° Southeast 529 609 35,000  Level FlightAware
03:48AM -19.4710 -49.4820 141° Southeast 529 609 35,000  Level FlightAware
03:49AM -19.5880 -49.3860 142° Southeast 532 612 35,000  Level FlightAware
03:49AM -19.6580 -49.3270 142° Southeast 532 612 35,000  Level FlightAware
03:50AM -19.7350 -49.2620 142° Southeast 533 613 35,000  Level FlightAware
03:51AM -19.8270 -49.1850 142° Southeast 534 615 35,000  Level FlightAware
03:51AM -19.9090 -49.1150 141° Southeast 535 616 35,000  Level FlightAware
03:52AM -19.9880 -49.0480 141° Southeast 534 615 35,000  Level FlightAware
03:53AM -20.0580 -48.9880 141° Southeast 533 613 35,000  Level FlightAware
03:53AM -20.1420 -48.9170 142° Southeast 534 615 35,000  Level FlightAware
03:54AM -20.2200 -48.8500 141° Southeast 534 615 35,000  Level FlightAware
03:55AM -20.3120 -48.7750 143° Southeast 531 611 35,000  Level FlightAware
03:56AM -20.4040 -48.7200 151° Southeast 527 606 35,000  Level FlightAware
03:56AM -20.4910 -48.6730 153° Southeast 527 606 35,000  Level FlightAware
03:57AM -20.5700 -48.6310 154° Southeast 525 604 35,000  Level FlightAware
03:58AM -20.6650 -48.5800 153° Southeast 524 603 35,000  Level FlightAware
03:58AM -20.7890 -48.5140 154° Southeast 523 602 35,000  Level FlightAware
03:59AM -20.8750 -48.4680 153° Southeast 521 600 35,000  Level FlightAware
04:00AM -20.9620 -48.4210 153° Southeast 521 600 35,000  Level FlightAware
04:00AM -21.0480 -48.3750 153° Southeast 520 598 35,000  Level FlightAware
04:01AM -21.1280 -48.3170 146° Southeast 531 611 35,000  Level FlightAware
04:02AM -21.2030 -48.2360 135° Southeast 535 616 35,000  Level FlightAware
04:03AM -21.2720 -48.1570 133° Southeast 536 617 35,000  Level FlightAware
04:03AM -21.3470 -48.0710 133° Southeast 537 618 35,000  Level FlightAware
04:04AM -21.4300 -47.9770 133° Southeast 537 618 35,000  Level FlightAware
04:05AM -21.4940 -47.9050 134° Southeast 538 619 35,000  Level FlightAware
04:05AM -21.5730 -47.8160 134° Southeast 539 620 35,000 -120 Level FlightAware
04:06AM -21.6280 -47.7530 133° Southeast 528 608 34,900 -1,020 Descending FlightAware
04:07AM -21.7080 -47.6620 133° Southeast 517 595 33,700 -1,740 Descending FlightAware
04:08AM -21.7810 -47.5790 133° Southeast 503 579 32,300 -1,860 Descending FlightAware
04:08AM -21.8450 -47.5050 133° Southeast 498 573 31,100 -1,800 Descending FlightAware
04:09AM -21.9080 -47.4330 133° Southeast 484 557 29,900 -1,800 Descending FlightAware
04:10AM -21.9720 -47.3630 135° Southeast 475 547 28,700 -1,800 Descending FlightAware
04:10AM -22.0560 -47.3150 152° Southeast 451 519 27,400 -1,680 Descending FlightAware
04:11AM -22.1420 -47.2790 159° South 433 498 26,200 -1,680 Descending FlightAware
04:12AM -22.2190 -47.2480 160° South 434 499 25,100 -1,620 Descending FlightAware
04:12AM -22.2930 -47.2180 159° South 419 482 24,100 -1,560 Descending FlightAware
04:13AM -22.3760 -47.1830 159° South 418 481 22,900 -1,560 Descending FlightAware
04:14AM -22.4460 -47.1540 159° South 404 465 21,900 -1,500 Descending FlightAware
04:15AM -22.5260 -47.1190 158° South 395 455 20,800 -1,560 Descending FlightAware
04:15AM -22.5950 -47.0900 159° South 397 457 19,700 -1,680 Descending FlightAware
04:16AM -22.6630 -47.0610 159° South 395 455 18,600 -1,740 Descending FlightAware
04:17AM -22.7400 -47.0290 159° South 382 440 17,300 -1,740 Descending FlightAware
04:17AM -22.8070 -47.0010 159° South 379 436 16,200 -1,740 Descending FlightAware
04:18AM -22.8740 -46.9730 159° South 383 441 15,000 -1,920 Descending FlightAware
04:19AM -22.9490 -46.9420 159° South 380 437 13,500 -2,100 Descending FlightAware
04:19AM -23.0080 -46.9170 159° South 380 437 12,200 -2,220 Descending FlightAware
04:20AM -23.0910 -46.8820 159° South 378 435 10,400 -1,800 Descending FlightAware
04:21AM -23.1330 -46.8640 158° South 365 420 10,000 -600 Descending FlightAware
04:21AM -23.1770 -46.8460 159° South 314 361 9,900 -660 Descending FlightAware
04:21AM -23.2110 -46.8310 158° South 296 341 9,400 -1,320 Descending FlightAware
04:22AM -23.2670 -46.8070 159° South 274 315 8,400 -1,320 Descending FlightAware
04:23AM -23.2980 -46.7940 159° South 278 320 7,900 -1,200 Descending FlightAware
04:23AM -23.3280 -46.7820 160° South 277 319 7,400 -900 Descending FlightAware
04:24AM -23.3680 -46.7630 156° South 258 297 7,000 -600 Descending FlightAware
04:24AM -23.3910 -46.7450 144° Southeast 233 268 6,800 -780 Descending FlightAware
04:25AM -23.4140 -46.7240 140° Southeast 219 252 6,300 -1,200 Descending FlightAware
04:25AM -23.4330 -46.7060 139° Southeast 203 234 5,700 -1,560 Descending FlightAware
04:25AM -23.4520 -46.6810 130° Southeast 205 236 4,900 -1,140 Descending FlightAware
04:26AM -23.4640 -46.6540 116° Southeast 196 226 4,600 -360 Descending FlightAware
04:26AM -23.4730 -46.6320 114° Southeast 191 220 4,600  Level FlightAware
04:27AM -23.4740 -46.6170 94° East 200 230 4,600 -240 Level FlightAware
04:27AM -23.4700 -46.6040 71° East 193 222 4,500 -780 Descending FlightAware
04:27AM -23.4640 -46.5810 74° East 179 206 4,100 -1,020 Descending FlightAware
04:28AM -23.4570 -46.5550 74° East 171 197 3,600 -840 Descending FlightAware
04:29AM -23.4390 -46.4890 73° East 169 194 2,500 -900 Descending FlightAware
04:29AM -23.4380 -46.4840 78° East 169 194 2,300 -2,400 Descending FlightAware
04:33AM -23.4321 -46.4695 145° Southeast  Level Estimated
04:34AM -23.4321 -46.4695 145° Southeast  Level Estimated